createdAt,value
2018-06-25T00:02:13.455Z,3.40
2018-06-25T00:05:18.470Z,3.30
2018-06-25T00:08:24.098Z,3.47
2018-06-25T00:11:28.997Z,3.33
2018-06-25T00:14:33.723Z,3.53
2018-06-25T00:17:39.310Z,3.20
2018-06-25T00:20:44.109Z,3.30
2018-06-25T00:23:48.959Z,2.97
2018-06-25T00:26:53.590Z,3.33
2018-06-25T00:29:59.250Z,3.33
2018-06-25T00:33:04.269Z,3.10
2018-06-25T00:36:09.226Z,3.83
2018-06-25T00:39:14.049Z,3.73
2018-06-25T00:42:19.013Z,3.37
2018-06-25T00:45:23.820Z,3.20
2018-06-25T00:48:29.295Z,3.80
2018-06-25T00:51:33.994Z,3.43
2018-06-25T00:54:38.735Z,3.23
2018-06-25T00:57:43.766Z,3.10
2018-06-25T01:00:48.804Z,3.60
2018-06-25T01:03:53.725Z,3.30
2018-06-25T01:06:59.022Z,3.63
2018-06-25T01:10:04.209Z,3.33
2018-06-25T01:13:09.175Z,3.20
2018-06-25T01:16:13.883Z,2.87
2018-06-25T01:19:19.224Z,2.83
2018-06-25T01:22:24.463Z,3.43
2018-06-25T01:25:29.453Z,3.77
2018-06-25T01:28:34.426Z,3.17
2018-06-25T01:31:42.308Z,3.30
2018-06-25T01:34:47.173Z,2.80
2018-06-25T01:37:52.074Z,2.50
2018-06-25T01:40:56.905Z,2.77
2018-06-25T01:44:01.781Z,2.73
2018-06-25T01:47:06.801Z,3.23
2018-06-25T01:50:12.944Z,2.47
2018-06-25T01:53:18.287Z,2.57
2018-06-25T01:56:23.318Z,2.63
2018-06-25T01:59:28.156Z,2.50
2018-06-25T02:02:32.915Z,2.90
2018-06-25T02:05:37.951Z,2.57
2018-06-25T02:08:43.100Z,2.50
2018-06-25T02:11:47.785Z,2.50
2018-06-25T02:14:52.292Z,2.77
2018-06-25T02:17:57.278Z,2.60
2018-06-25T02:21:01.800Z,2.67
2018-06-25T02:24:06.737Z,2.60
2018-06-25T02:27:11.558Z,2.30
2018-06-25T02:30:16.726Z,2.60
2018-06-25T02:33:21.981Z,2.83
2018-06-25T02:36:27.124Z,2.60
2018-06-25T02:39:31.958Z,2.40
2018-06-25T02:42:36.821Z,2.70
2018-06-25T02:45:41.609Z,3.10
2018-06-25T02:48:46.293Z,2.50
2018-06-25T02:51:51.761Z,2.73
2018-06-25T02:54:56.511Z,2.27
2018-06-25T02:58:01.514Z,2.07
2018-06-25T03:01:06.629Z,2.30
2018-06-25T03:04:11.364Z,2.00
2018-06-25T03:07:16.238Z,1.87
2018-06-25T03:10:21.973Z,2.40
2018-06-25T03:13:26.605Z,1.47
2018-06-25T03:16:30.804Z,0.80
2018-06-25T03:19:41.365Z,1.07
2018-06-25T03:22:46.487Z,0.97
2018-06-25T03:25:51.267Z,1.00
2018-06-25T03:28:56.312Z,0.90
2018-06-25T03:32:01.003Z,1.20
2018-06-25T03:35:06.193Z,0.90
2018-06-25T03:38:11.185Z,0.67
2018-06-25T03:41:15.766Z,0.90
2018-06-25T03:44:20.587Z,0.80
2018-06-25T03:47:25.502Z,0.80
2018-06-25T03:50:30.855Z,0.93
2018-06-25T03:53:35.980Z,0.77
2018-06-25T03:56:42.596Z,1.10
2018-06-25T03:59:48.040Z,1.00
2018-06-25T04:02:52.894Z,1.17
2018-06-25T04:05:58.077Z,1.30
2018-06-25T04:09:03.921Z,1.50
2018-06-25T04:12:09.645Z,1.10
2018-06-25T04:15:14.838Z,1.17
2018-06-25T04:18:19.765Z,1.40
2018-06-25T04:21:24.606Z,1.50
2018-06-25T04:24:29.324Z,1.50
2018-06-25T04:27:34.509Z,1.00
2018-06-25T04:30:39.358Z,1.03
2018-06-25T04:33:44.183Z,1.43
2018-06-25T04:36:48.857Z,1.27
2018-06-25T04:39:53.583Z,1.30
2018-06-25T04:42:58.656Z,1.30
2018-06-25T04:46:03.543Z,1.50
2018-06-25T04:49:08.678Z,1.40
2018-06-25T04:52:13.587Z,1.37
2018-06-25T04:55:18.662Z,1.20
2018-06-25T04:58:23.533Z,1.40
2018-06-25T05:01:28.500Z,1.63
2018-06-25T05:04:33.271Z,1.47
2018-06-25T05:07:38.640Z,1.50
2018-06-25T05:10:43.778Z,1.80
2018-06-25T05:13:48.617Z,1.57
2018-06-25T05:16:53.200Z,1.77
2018-06-25T05:19:57.931Z,1.80
2018-06-25T05:23:02.773Z,1.60
2018-06-25T05:26:07.727Z,1.70
2018-06-25T05:29:12.404Z,1.93
2018-06-25T05:32:17.503Z,1.50
2018-06-25T05:35:22.450Z,1.60
2018-06-25T05:38:27.003Z,1.83
2018-06-25T05:41:31.521Z,1.57
2018-06-25T05:44:36.185Z,1.50
2018-06-25T05:47:41.019Z,1.93
2018-06-25T05:50:45.961Z,1.40
2018-06-25T05:53:50.991Z,1.57
2018-06-25T05:56:55.928Z,1.70
2018-06-25T06:00:01.079Z,1.60
2018-06-25T06:03:05.993Z,1.53
2018-06-25T06:06:10.579Z,2.10
2018-06-25T06:09:15.360Z,1.70
2018-06-25T06:12:20.140Z,1.60
2018-06-25T06:15:24.811Z,1.50
2018-06-25T06:18:29.559Z,1.70
2018-06-25T06:21:34.275Z,2.30
2018-06-25T06:24:39.667Z,1.77
2018-06-25T06:27:44.764Z,1.40
2018-06-25T06:30:49.712Z,1.80
2018-06-25T06:33:54.867Z,2.10
2018-06-25T06:36:59.986Z,1.47
2018-06-25T06:40:04.974Z,1.70
2018-06-25T06:43:09.467Z,1.90
2018-06-25T06:46:14.077Z,1.60
2018-06-25T06:49:19.035Z,1.83
2018-06-25T06:52:24.026Z,2.00
2018-06-25T06:55:29.972Z,1.53
2018-06-25T06:58:34.820Z,1.60
2018-06-25T07:01:40.915Z,1.33
2018-06-25T07:04:45.995Z,1.70
2018-06-25T07:07:50.698Z,1.50
2018-06-25T07:10:55.459Z,1.40
2018-06-25T07:13:59.910Z,1.70
2018-06-25T07:17:04.977Z,1.40
2018-06-25T07:20:09.722Z,1.53
2018-06-25T07:23:14.757Z,1.47
2018-06-25T07:26:23.261Z,1.27
2018-06-25T07:29:28.172Z,1.10
2018-06-25T07:32:32.827Z,1.17
2018-06-25T07:35:38.742Z,1.00
2018-06-25T07:38:43.892Z,1.10
2018-06-25T07:41:48.597Z,1.17
2018-06-25T07:44:53.411Z,1.20
2018-06-25T07:47:58.509Z,1.13
2018-06-25T07:51:03.747Z,0.90
2018-06-25T07:54:09.082Z,1.30
2018-06-25T07:57:13.877Z,0.97
2018-06-25T08:00:18.510Z,1.30
2018-06-25T08:03:23.568Z,1.20
2018-06-25T08:06:28.456Z,1.27
2018-06-25T08:09:33.343Z,1.00
2018-06-25T08:12:38.465Z,1.17
2018-06-25T08:15:43.875Z,1.10
2018-06-25T08:18:49.016Z,1.40
2018-06-25T08:21:53.967Z,1.40
2018-06-25T08:24:58.701Z,1.30
2018-06-25T08:28:03.644Z,1.17
2018-06-25T08:31:08.332Z,1.77
2018-06-25T08:34:13.645Z,1.53
2018-06-25T08:37:18.640Z,1.63
2018-06-25T08:40:23.389Z,1.60
2018-06-25T08:43:29.255Z,1.67
2018-06-25T08:46:34.166Z,2.00
2018-06-25T08:49:39.368Z,1.80
2018-06-25T08:52:44.464Z,1.80
2018-06-25T08:55:49.188Z,1.50
2018-06-25T08:58:54.101Z,2.10
2018-06-25T09:01:59.060Z,1.83
2018-06-25T09:05:03.967Z,2.10
2018-06-25T09:08:08.756Z,1.87
2018-06-25T09:11:20.656Z,2.00
2018-06-25T09:14:25.685Z,2.00
2018-06-25T09:17:30.782Z,2.30
2018-06-25T09:20:35.564Z,2.67
2018-06-25T09:23:40.964Z,2.30
2018-06-25T09:26:45.738Z,2.27
2018-06-25T09:29:50.365Z,2.57
2018-06-25T09:32:55.508Z,2.50
2018-06-25T09:36:00.705Z,2.40
2018-06-25T09:39:08.306Z,2.70
2018-06-25T09:42:13.098Z,2.60
2018-06-25T09:45:17.917Z,2.70
2018-06-25T09:48:22.538Z,2.07
2018-06-25T09:51:28.161Z,2.70
2018-06-25T09:54:33.092Z,3.13
2018-06-25T09:57:38.797Z,3.03
2018-06-25T10:00:49.057Z,2.87
2018-06-25T10:03:54.125Z,3.07
2018-06-25T10:06:59.230Z,6.03
2018-06-25T10:10:04.123Z,2.70
2018-06-25T10:13:09.095Z,2.87
2018-06-25T10:16:14.294Z,2.63
2018-06-25T10:19:19.214Z,2.80
2018-06-25T10:22:24.069Z,2.73
2018-06-25T10:25:29.099Z,3.17
2018-06-25T10:28:34.916Z,2.53
2018-06-25T10:31:39.797Z,2.97
2018-06-25T10:34:44.793Z,2.80
2018-06-25T10:37:50.016Z,3.13
2018-06-25T10:40:54.984Z,2.70
2018-06-25T10:43:59.966Z,2.60
2018-06-25T10:47:05.040Z,2.70
2018-06-25T10:50:10.315Z,2.50
2018-06-25T10:53:15.364Z,2.93
2018-06-25T10:56:19.966Z,2.50
2018-06-25T10:59:24.817Z,2.57
2018-06-25T11:02:29.782Z,3.17
2018-06-25T11:05:34.619Z,2.50
2018-06-25T11:08:40.836Z,2.73
2018-06-25T11:11:45.719Z,3.00
2018-06-25T11:14:50.705Z,2.60
2018-06-25T11:17:55.529Z,2.87
2018-06-25T11:21:00.515Z,2.23
2018-06-25T11:24:05.459Z,2.63
2018-06-25T11:27:10.424Z,2.43
2018-06-25T11:30:15.097Z,2.93
2018-06-25T11:33:20.140Z,2.87
2018-06-25T11:36:25.134Z,2.70
2018-06-25T11:39:29.930Z,2.50
2018-06-25T11:42:34.703Z,2.43
2018-06-25T11:45:40.577Z,2.00
2018-06-25T11:48:46.166Z,2.37
2018-06-25T11:51:50.834Z,2.33
2018-06-25T11:54:55.657Z,2.20
2018-06-25T11:58:00.271Z,2.40
2018-06-25T12:01:04.978Z,2.47
2018-06-25T12:04:09.737Z,2.37
2018-06-25T12:07:14.892Z,2.27
2018-06-25T12:10:20.720Z,2.17
2018-06-25T12:13:25.747Z,2.63
2018-06-25T12:16:30.694Z,2.40
2018-06-25T12:19:35.853Z,2.73
2018-06-25T12:22:42.123Z,1.90
2018-06-25T12:25:47.093Z,2.30
2018-06-25T12:28:52.853Z,2.03
2018-06-25T12:31:57.622Z,1.80
2018-06-25T12:35:02.538Z,1.90
2018-06-25T12:38:07.439Z,1.60
2018-06-25T12:41:12.133Z,2.50
2018-06-25T12:44:17.082Z,1.90
2018-06-25T12:47:21.703Z,1.97
2018-06-25T12:50:26.998Z,1.70
2018-06-25T12:53:31.998Z,1.80
2018-06-25T12:56:36.910Z,1.80
2018-06-25T12:59:42.606Z,1.93
2018-06-25T13:02:47.409Z,1.73
2018-06-25T13:05:52.255Z,1.70
2018-06-25T13:08:57.116Z,1.80
2018-06-25T13:12:01.902Z,1.70
2018-06-25T13:15:07.228Z,1.90
2018-06-25T13:18:12.204Z,1.70
2018-06-25T13:21:16.840Z,1.40
2018-06-25T13:24:21.905Z,1.93
2018-06-25T13:27:27.071Z,1.83
2018-06-25T13:30:31.691Z,1.60
2018-06-25T13:33:36.433Z,1.67
2018-06-25T13:36:42.623Z,1.70
2018-06-25T13:39:47.530Z,1.37
2018-06-25T13:42:52.780Z,1.50
2018-06-25T13:45:58.436Z,1.27
2018-06-25T13:49:03.817Z,1.40
2018-06-25T13:52:08.600Z,1.40
2018-06-25T13:55:13.540Z,1.33
2018-06-25T13:58:18.478Z,1.40
2018-06-25T14:01:23.288Z,1.77
2018-06-25T14:04:28.561Z,1.60
2018-06-25T14:07:34.013Z,1.33
2018-06-25T14:10:39.810Z,1.43
2018-06-25T14:13:44.897Z,1.47
2018-06-25T14:16:49.867Z,1.50
2018-06-25T14:19:54.359Z,1.47
2018-06-25T14:22:59.403Z,1.77
2018-06-25T14:26:06.865Z,1.53
2018-06-25T14:29:16.738Z,1.60
2018-06-25T14:32:26.568Z,1.33
2018-06-25T14:35:31.727Z,1.57
2018-06-25T14:38:37.995Z,1.63
2018-06-25T14:41:42.790Z,1.70
2018-06-25T14:44:47.465Z,1.60
2018-06-25T14:47:51.985Z,1.40
2018-06-25T14:50:56.869Z,1.40
2018-06-25T14:54:03.096Z,1.70
2018-06-25T14:57:07.873Z,1.50
2018-06-25T15:00:16.616Z,1.53
2018-06-25T15:03:21.541Z,1.40
2018-06-25T15:06:26.121Z,1.50
2018-06-25T15:09:30.818Z,1.30
2018-06-25T15:12:38.714Z,1.40
2018-06-25T15:15:43.602Z,1.40
2018-06-25T15:18:48.424Z,1.40
2018-06-25T15:21:53.692Z,1.50
2018-06-25T15:24:58.940Z,1.40
2018-06-25T15:28:03.779Z,1.30
2018-06-25T15:31:08.528Z,1.23
2018-06-25T15:34:13.149Z,1.60
2018-06-25T15:37:18.083Z,1.30
2018-06-25T15:40:23.248Z,1.10
2018-06-25T15:43:28.448Z,1.37
2018-06-25T15:46:33.691Z,1.10
2018-06-25T15:49:39.925Z,1.43
2018-06-25T15:52:45.111Z,1.50
2018-06-25T15:55:50.274Z,1.40
2018-06-25T15:59:00.546Z,1.53
2018-06-25T16:02:05.310Z,1.50
2018-06-25T16:05:09.870Z,1.87
2018-06-25T16:08:14.719Z,1.80
2018-06-25T16:11:19.590Z,2.17
2018-06-25T16:14:24.350Z,1.67
2018-06-25T16:17:29.235Z,3.00
2018-06-25T16:20:34.059Z,1.90
2018-06-25T16:23:38.931Z,1.87
2018-06-25T16:26:43.876Z,2.00
2018-06-25T16:29:49.084Z,1.97
2018-06-25T16:32:54.306Z,2.17
2018-06-25T16:35:59.177Z,2.50
2018-06-25T16:39:04.483Z,2.23
2018-06-25T16:42:09.244Z,2.50
2018-06-25T16:45:13.831Z,2.43
2018-06-25T16:48:18.736Z,1.80
2018-06-25T16:51:24.091Z,2.77
2018-06-25T16:54:28.842Z,2.40
2018-06-25T16:57:33.972Z,2.37
2018-06-25T17:00:39.441Z,2.30
2018-06-25T17:03:43.953Z,2.53
2018-06-25T17:06:48.754Z,2.37
2018-06-25T17:09:53.491Z,2.33
2018-06-25T17:12:58.178Z,2.30
2018-06-25T17:16:02.871Z,2.60
2018-06-25T17:19:08.836Z,2.47
2018-06-25T17:22:13.563Z,2.40
2018-06-25T17:25:18.301Z,2.33
2018-06-25T17:28:23.464Z,2.60
2018-06-25T17:31:31.002Z,2.70
2018-06-25T17:34:35.954Z,2.30
2018-06-25T17:37:41.015Z,2.10
2018-06-25T17:40:45.634Z,2.50
2018-06-25T17:43:50.544Z,2.90
2018-06-25T17:46:55.156Z,3.37
2018-06-25T17:50:00.006Z,2.87
2018-06-25T17:53:05.000Z,2.57
2018-06-25T17:56:09.870Z,2.67
2018-06-25T17:59:14.480Z,2.80
2018-06-25T18:02:19.479Z,3.10
2018-06-25T18:05:24.534Z,2.63
2018-06-25T18:08:29.407Z,4.10
2018-06-25T18:11:34.108Z,3.20
2018-06-25T18:14:39.563Z,3.53
2018-06-25T18:17:44.412Z,2.50
2018-06-25T18:20:49.826Z,2.77
2018-06-25T18:23:54.630Z,2.63
2018-06-25T18:26:59.160Z,3.30
2018-06-25T18:30:03.723Z,2.63
2018-06-25T18:33:08.473Z,3.07
2018-06-25T18:36:13.119Z,3.07
2018-06-25T18:39:17.904Z,2.97
2018-06-25T18:42:22.352Z,2.80
2018-06-25T18:45:26.907Z,3.10
2018-06-25T18:48:32.020Z,3.03
2018-06-25T18:51:36.682Z,3.27
2018-06-25T18:54:42.377Z,3.07
2018-06-25T18:57:47.339Z,3.10
2018-06-25T19:00:51.991Z,3.20
2018-06-25T19:03:56.857Z,3.17
2018-06-25T19:07:01.931Z,3.40
2018-06-25T19:10:06.613Z,2.73
2018-06-25T19:13:11.295Z,3.30
2018-06-25T19:16:16.363Z,3.43
2018-06-25T19:19:21.094Z,3.03
2018-06-25T19:22:25.962Z,3.37
2018-06-25T19:25:30.894Z,3.50
2018-06-25T19:28:36.069Z,3.10
2018-06-25T19:31:40.640Z,3.80
2018-06-25T19:34:45.489Z,5.90
2018-06-25T19:37:49.786Z,3.40
2018-06-25T19:40:54.613Z,3.47
2018-06-25T19:43:59.479Z,2.80
2018-06-25T19:47:04.483Z,4.53
2018-06-25T19:50:09.370Z,4.17
2018-06-25T19:53:14.150Z,3.30
2018-06-25T19:56:19.428Z,3.50
2018-06-25T19:59:24.326Z,3.30
2018-06-25T20:02:28.889Z,3.40
2018-06-25T20:05:33.717Z,3.47
2018-06-25T20:08:40.496Z,3.47
2018-06-25T20:11:45.527Z,3.83
2018-06-25T20:14:50.290Z,4.00
2018-06-25T20:17:55.303Z,3.57
2018-06-25T20:21:00.263Z,3.37
2018-06-25T20:24:05.477Z,3.20
2018-06-25T20:27:10.740Z,3.87
2018-06-25T20:30:15.784Z,2.93
2018-06-25T20:33:20.574Z,3.70
2018-06-25T20:36:25.374Z,3.43
2018-06-25T20:39:29.834Z,3.33
2018-06-25T20:42:34.455Z,3.10
2018-06-25T20:45:39.822Z,3.20
2018-06-25T20:48:44.670Z,3.70
2018-06-25T20:51:50.539Z,3.27
2018-06-25T20:54:55.689Z,3.47
2018-06-25T20:58:00.474Z,2.87
2018-06-25T21:01:05.511Z,3.37
2018-06-25T21:04:10.354Z,3.30
2018-06-25T21:07:14.871Z,3.97
2018-06-25T21:10:19.964Z,3.00
2018-06-25T21:13:24.761Z,3.30
2018-06-25T21:16:29.644Z,3.33
2018-06-25T21:19:34.529Z,3.53
2018-06-25T21:22:39.779Z,3.17
2018-06-25T21:25:44.771Z,3.83
2018-06-25T21:28:49.769Z,3.83
2018-06-25T21:31:55.268Z,3.50
2018-06-25T21:35:00.073Z,3.73
2018-06-25T21:38:05.160Z,2.90
2018-06-25T21:41:09.893Z,3.63
2018-06-25T21:44:14.844Z,3.50
2018-06-25T21:47:19.724Z,3.47
2018-06-25T21:50:24.690Z,6.40
2018-06-25T21:53:29.766Z,3.50
2018-06-25T21:56:34.517Z,3.53
2018-06-25T21:59:40.458Z,3.60
2018-06-25T22:02:44.864Z,3.90
2018-06-25T22:05:50.364Z,4.00
2018-06-25T22:08:55.043Z,3.00
2018-06-25T22:11:59.544Z,3.27
2018-06-25T22:15:04.552Z,3.57
2018-06-25T22:18:09.761Z,3.47
2018-06-25T22:21:14.352Z,3.70
2018-06-25T22:24:19.256Z,3.23
2018-06-25T22:27:24.525Z,3.60
2018-06-25T22:30:29.571Z,3.93
2018-06-25T22:33:34.636Z,3.17
2018-06-25T22:36:40.521Z,3.90
2018-06-25T22:39:45.713Z,3.73
2018-06-25T22:42:51.236Z,3.87
2018-06-25T22:45:55.969Z,3.77
2018-06-25T22:49:00.412Z,3.50
2018-06-25T22:52:04.891Z,3.43
2018-06-25T22:55:09.665Z,3.33
2018-06-25T22:58:14.125Z,3.70
2018-06-25T23:01:19.161Z,4.03
2018-06-25T23:04:23.707Z,3.60
2018-06-25T23:07:28.353Z,3.83
2018-06-25T23:10:32.939Z,4.00
2018-06-25T23:13:37.716Z,3.63
2018-06-25T23:16:42.604Z,3.13
2018-06-25T23:19:47.706Z,3.53
2018-06-25T23:22:56.811Z,3.70
2018-06-25T23:26:01.643Z,3.90
2018-06-25T23:29:06.284Z,3.50
2018-06-25T23:32:11.206Z,3.80
2018-06-25T23:35:16.290Z,3.53
2018-06-25T23:38:21.227Z,3.57
2018-06-25T23:41:26.162Z,4.03
2018-06-25T23:44:31.339Z,3.30
2018-06-25T23:47:36.195Z,3.87
2018-06-25T23:50:41.164Z,3.63
2018-06-25T23:53:46.134Z,3.53
2018-06-25T23:56:50.833Z,3.57
2018-06-25T23:59:55.252Z,3.37
